createdAt,value
2022-08-08T00:04:16.340Z,96276.19
2022-08-08T00:09:33.109Z,96311.97
2022-08-08T00:14:48.311Z,96319.19
2022-08-08T00:20:07.731Z,96299.06
2022-08-08T00:25:28.615Z,96333.28
2022-08-08T00:31:00.702Z,96316.09
2022-08-08T00:36:25.616Z,96311.28
2022-08-08T00:42:09.077Z,96308.75
2022-08-08T00:48:04.917Z,96321.38
2022-08-08T00:53:13.922Z,96324.28
2022-08-08T00:58:37.153Z,96319.59
2022-08-08T01:04:02.026Z,96334.59
2022-08-08T01:09:35.669Z,96326.22
2022-08-08T01:15:37.112Z,96317.41
2022-08-08T01:21:09.467Z,96316.72
2022-08-08T01:26:49.213Z,96323.06
2022-08-08T01:32:43.428Z,96306.25
2022-08-08T01:38:27.545Z,96323.75
2022-08-08T01:43:54.347Z,96331.69
2022-08-08T01:49:23.429Z,96318.97
2022-08-08T01:55:45.038Z,96314.63
2022-08-08T02:00:48.924Z,96328.34
2022-08-08T02:06:32.552Z,96327.72
2022-08-08T02:11:52.995Z,96327.34
2022-08-08T02:17:18.098Z,96327.84
2022-08-08T02:22:45.992Z,96335.28
2022-08-08T02:28:09.415Z,96335.31
2022-08-08T02:34:00.606Z,96332.75
2022-08-08T02:39:41.137Z,96334.34
2022-08-08T02:44:38.351Z,96333.88
2022-08-08T02:50:18.032Z,96336.28
2022-08-08T02:55:25.477Z,96326.41
2022-08-08T03:00:55.665Z,96341.03
2022-08-08T03:06:34.314Z,96346.00
2022-08-08T03:12:02.504Z,96356.75
2022-08-08T03:17:20.072Z,96352.59
2022-08-08T03:22:38.814Z,96359.72
2022-08-08T03:27:56.776Z,96356.72
2022-08-08T03:33:54.995Z,96349.16
2022-08-08T03:38:54.881Z,96364.19
2022-08-08T03:44:05.689Z,96358.66
2022-08-08T03:49:57.582Z,96371.53
2022-08-08T03:55:02.280Z,96388.75
2022-08-08T04:00:20.015Z,96387.56
2022-08-08T04:05:36.694Z,96387.19
2022-08-08T04:10:59.670Z,96378.50
2022-08-08T04:16:05.651Z,96390.28
2022-08-08T04:21:20.020Z,96370.38
2022-08-08T04:26:40.070Z,96390.66
2022-08-08T04:32:00.067Z,96397.53
2022-08-08T04:37:09.834Z,96402.47
2022-08-08T04:42:15.691Z,96402.59
2022-08-08T04:47:19.639Z,96407.75
2022-08-08T04:52:25.388Z,96419.38
2022-08-08T04:57:38.867Z,96392.47
2022-08-08T05:02:43.342Z,96409.97
2022-08-08T05:07:47.259Z,96404.28
2022-08-08T05:12:59.987Z,96404.84
2022-08-08T05:18:08.084Z,96424.22
2022-08-08T05:23:18.101Z,96418.72
2022-08-08T05:28:56.604Z,96409.72
2022-08-08T05:33:49.462Z,96420.50
2022-08-08T05:39:00.441Z,96411.88
2022-08-08T05:44:34.774Z,96416.75
2022-08-08T05:49:38.910Z,96418.47
2022-08-08T05:55:03.311Z,96415.16
2022-08-08T06:00:25.424Z,96413.72
2022-08-08T06:05:36.361Z,96410.50
2022-08-08T06:10:51.882Z,96415.63
2022-08-08T06:16:09.246Z,96407.72
2022-08-08T06:21:51.864Z,96396.59
2022-08-08T06:27:11.064Z,96384.94
2022-08-08T06:32:29.024Z,96385.41
2022-08-08T06:37:37.679Z,96376.69
2022-08-08T06:43:06.620Z,96383.16
2022-08-08T06:48:22.411Z,96375.41
2022-08-08T06:53:39.554Z,96370.59
2022-08-08T06:58:45.620Z,96380.38
2022-08-08T07:04:36.349Z,96377.75
2022-08-08T07:09:45.401Z,96366.06
2022-08-08T07:15:05.408Z,96375.41
2022-08-08T07:20:12.433Z,96366.78
2022-08-08T07:25:29.379Z,96380.69
2022-08-08T07:30:39.073Z,96359.31
2022-08-08T07:35:45.201Z,96379.16
2022-08-08T07:40:55.972Z,96372.06
2022-08-08T07:46:23.755Z,96380.13
2022-08-08T07:51:45.030Z,96378.69
2022-08-08T07:57:00.266Z,96388.88
2022-08-08T08:02:35.953Z,96382.91
2022-08-08T08:07:38.627Z,96385.09
2022-08-08T08:12:54.395Z,96384.00
2022-08-08T08:18:01.621Z,96374.88
2022-08-08T08:23:06.118Z,96373.16
2022-08-08T08:28:09.892Z,96374.75
2022-08-08T08:33:15.796Z,96375.63
2022-08-08T08:38:19.920Z,96366.56
2022-08-08T08:43:33.201Z,96375.16
2022-08-08T08:48:49.144Z,96370.31
2022-08-08T08:53:59.959Z,96342.44
2022-08-08T08:59:09.090Z,96360.94
2022-08-08T09:04:31.208Z,96340.97
2022-08-08T09:09:57.244Z,96334.34
2022-08-08T09:15:06.703Z,96329.19
2022-08-08T09:21:57.058Z,96341.72
2022-08-08T09:25:54.503Z,96324.88
2022-08-08T09:31:14.904Z,96326.16
2022-08-08T09:36:28.617Z,96331.59
2022-08-08T09:41:54.763Z,96304.13
2022-08-08T09:48:02.025Z,96314.88
2022-08-08T09:52:55.427Z,96315.22
2022-08-08T09:58:06.602Z,96320.75
2022-08-08T10:03:15.404Z,96307.81
2022-08-08T10:08:34.626Z,96314.56
2022-08-08T10:13:38.389Z,96290.72
2022-08-08T10:24:28.600Z,96305.81
2022-08-08T10:30:01.138Z,96289.16
2022-08-08T10:35:11.540Z,96286.00
2022-08-08T10:40:32.267Z,96261.13
2022-08-08T10:45:56.841Z,96273.84
2022-08-08T10:51:12.235Z,96264.13
2022-08-08T10:56:27.699Z,96264.22
2022-08-08T11:01:39.437Z,96248.97
2022-08-08T11:06:47.317Z,96227.97
2022-08-08T11:12:05.994Z,96216.03
2022-08-08T11:17:58.807Z,96238.63
2022-08-08T11:22:42.628Z,96204.66
2022-08-08T11:27:48.937Z,96234.09
2022-08-08T11:32:57.701Z,96200.56
2022-08-08T11:38:37.030Z,96220.84
2022-08-08T11:43:39.335Z,96208.25
2022-08-08T11:48:47.145Z,96217.72
2022-08-08T11:53:59.197Z,96227.38
2022-08-08T11:59:09.832Z,96199.19
2022-08-08T12:04:12.530Z,96212.00
2022-08-08T12:09:16.869Z,96220.19
2022-08-08T12:14:29.298Z,96208.63
2022-08-08T12:19:51.297Z,96207.00
2022-08-08T12:24:56.585Z,96201.41
2022-08-08T12:30:01.853Z,96215.28
2022-08-08T12:35:17.549Z,96194.69
2022-08-08T12:40:22.991Z,96198.09
2022-08-08T12:45:58.836Z,96176.09
2022-08-08T12:50:58.557Z,96193.28
2022-08-08T12:56:18.932Z,96174.75
2022-08-08T13:01:38.797Z,96176.66
2022-08-08T13:07:00.937Z,96171.19
2022-08-08T13:12:47.146Z,96159.13
2022-08-08T13:18:07.607Z,96147.41
2022-08-08T13:23:36.064Z,96145.34
2022-08-08T13:28:42.039Z,96149.81
2022-08-08T13:33:49.740Z,96140.34
2022-08-08T13:38:52.830Z,96155.19
2022-08-08T13:43:58.256Z,96147.34
2022-08-08T13:50:33.430Z,96142.78
2022-08-08T13:54:31.270Z,96141.94
2022-08-08T13:59:39.199Z,96146.19
2022-08-08T14:05:09.563Z,96129.19
2022-08-08T14:10:33.713Z,96127.63
2022-08-08T14:15:50.079Z,96135.91
2022-08-08T14:21:03.005Z,96122.50
2022-08-08T14:26:10.907Z,96119.06
2022-08-08T14:31:20.210Z,96112.81
2022-08-08T14:36:54.392Z,96108.22
2022-08-08T14:42:07.540Z,96111.22
2022-08-08T14:47:16.577Z,96097.94
2022-08-08T14:52:23.239Z,96102.72
2022-08-08T14:58:02.541Z,96078.19
2022-08-08T15:02:59.093Z,96098.38
2022-08-08T15:08:12.813Z,96082.59
2022-08-08T15:13:25.242Z,96081.50
2022-08-08T15:18:38.021Z,96080.06
2022-08-08T15:23:42.557Z,96083.72
2022-08-08T15:28:45.596Z,96074.56
2022-08-08T15:33:58.845Z,96065.47
2022-08-08T15:39:02.370Z,96066.97
2022-08-08T15:44:05.578Z,96056.50
2022-08-08T15:49:10.008Z,96066.75
2022-08-08T15:54:18.372Z,96055.03
2022-08-08T15:59:21.391Z,96068.41
2022-08-08T16:04:43.758Z,96062.66
2022-08-08T16:13:03.836Z,96061.69
2022-08-08T16:15:12.570Z,96081.50
2022-08-08T16:20:20.120Z,96079.50
2022-08-08T16:25:24.373Z,96078.69
2022-08-08T16:30:45.489Z,96088.13
2022-08-08T16:35:49.602Z,96097.44
2022-08-08T16:40:52.485Z,96099.09
2022-08-08T16:46:36.690Z,96113.34
2022-08-08T16:55:05.349Z,96130.59
2022-08-08T16:56:48.222Z,96138.06
2022-08-08T17:02:03.330Z,96141.69
2022-08-08T17:07:05.981Z,96143.31
2022-08-08T17:12:09.767Z,96132.69
2022-08-08T17:17:41.635Z,96140.31
2022-08-08T17:22:43.113Z,96155.41
2022-08-08T17:27:47.512Z,96158.16
2022-08-08T17:34:30.401Z,96161.50
2022-08-08T17:38:12.525Z,96160.38
2022-08-08T17:43:16.940Z,96196.13
2022-08-08T17:48:30.917Z,96192.41
2022-08-08T17:53:43.230Z,96193.50
2022-08-08T17:58:46.498Z,96199.75
2022-08-08T18:03:52.594Z,96231.44
2022-08-08T18:08:55.447Z,96238.53
2022-08-08T18:13:59.166Z,96246.03
2022-08-08T18:19:11.250Z,96248.41
2022-08-08T18:24:21.330Z,96239.22
2022-08-08T18:29:33.698Z,96255.22
2022-08-08T18:34:40.397Z,96256.56
2022-08-08T18:39:45.163Z,96258.19
2022-08-08T18:45:09.159Z,96270.22
2022-08-08T18:50:27.168Z,96270.38
2022-08-08T18:55:29.581Z,96278.69
2022-08-08T19:00:50.212Z,96273.81
2022-08-08T19:05:52.683Z,96282.31
2022-08-08T19:10:59.871Z,96288.91
2022-08-08T19:16:05.886Z,96289.66
2022-08-08T19:21:29.089Z,96284.50
2022-08-08T19:26:37.775Z,96302.25
2022-08-08T19:31:46.848Z,96289.56
2022-08-08T19:36:55.373Z,96297.72
2022-08-08T19:42:00.876Z,96301.44
2022-08-08T19:47:06.476Z,96302.94
2022-08-08T19:52:10.501Z,96289.84
2022-08-08T19:57:15.889Z,96294.47
2022-08-08T20:02:18.387Z,96293.94
2022-08-08T20:08:29.112Z,96285.50
2022-08-08T20:12:59.153Z,96303.72
2022-08-08T20:18:15.395Z,96296.97
2022-08-08T20:23:19.830Z,96305.69
2022-08-08T20:28:32.286Z,96310.75
2022-08-08T20:34:27.643Z,96306.66
2022-08-08T20:38:57.757Z,96301.63
2022-08-08T20:44:01.197Z,96295.44
2022-08-08T20:49:05.157Z,96312.34
2022-08-08T20:54:14.077Z,96302.72
2022-08-08T20:59:18.713Z,96301.84
2022-08-08T21:04:27.573Z,96305.53
2022-08-08T21:09:31.827Z,96322.41
2022-08-08T21:14:53.134Z,96284.25
2022-08-08T21:19:58.910Z,96311.75
2022-08-08T21:25:02.169Z,96329.63
2022-08-08T21:30:10.887Z,96334.53
2022-08-08T21:36:17.840Z,96338.19
2022-08-08T21:40:55.026Z,96328.16
2022-08-08T21:48:07.326Z,96323.81
2022-08-08T21:54:17.089Z,96324.53
2022-08-08T21:56:46.325Z,96327.78
2022-08-08T22:01:52.487Z,96296.50
2022-08-08T22:06:57.997Z,96314.69
2022-08-08T22:12:09.446Z,96300.38
2022-08-08T22:17:12.508Z,96315.44
2022-08-08T22:22:16.021Z,96303.44
2022-08-08T22:27:38.633Z,96313.03
2022-08-08T22:32:42.533Z,96322.53
2022-08-08T22:37:54.765Z,96321.81
2022-08-08T22:42:57.557Z,96313.91
2022-08-08T22:48:00.065Z,96319.66
2022-08-08T22:54:31.102Z,96328.00
2022-08-08T22:58:31.144Z,96307.41
2022-08-08T23:03:53.535Z,96314.34
2022-08-08T23:09:00.122Z,96310.59
2022-08-08T23:14:02.928Z,96314.63
2022-08-08T23:19:08.812Z,96324.56
2022-08-08T23:24:11.462Z,96311.78
2022-08-08T23:29:14.720Z,96323.44
2022-08-08T23:34:19.498Z,96332.66
2022-08-08T23:39:22.102Z,96321.47
2022-08-08T23:44:24.634Z,96334.19
2022-08-08T23:49:31.326Z,96329.84
2022-08-08T23:54:42.872Z,96342.59
